createdAt,value
2022-10-05T00:00:15.578Z,67.13
2022-10-05T00:02:42.001Z,66.73
2022-10-05T00:05:23.710Z,66.44
2022-10-05T00:07:51.728Z,66.68
2022-10-05T00:10:19.455Z,66.50
2022-10-05T00:12:47.607Z,66.58
2022-10-05T00:15:17.992Z,66.38
2022-10-05T00:17:44.330Z,66.15
2022-10-05T00:20:26.072Z,66.74
2022-10-05T00:22:57.877Z,66.78
2022-10-05T00:25:24.559Z,66.58
2022-10-05T00:27:56.730Z,66.66
2022-10-05T00:30:24.930Z,66.76
2022-10-05T00:32:54.869Z,67.86
2022-10-05T00:35:23.736Z,68.13
2022-10-05T00:37:55.071Z,68.23
2022-10-05T00:40:40.314Z,68.50
2022-10-05T00:43:37.333Z,68.03
2022-10-05T00:46:20.201Z,67.99
2022-10-05T00:49:29.077Z,68.00
2022-10-05T00:52:32.249Z,68.34
2022-10-05T00:55:26.232Z,68.76
2022-10-05T00:58:14.023Z,68.72
2022-10-05T01:01:18.018Z,68.53
2022-10-05T01:04:11.881Z,69.34
2022-10-05T01:07:07.516Z,69.26
2022-10-05T01:09:41.399Z,69.22
2022-10-05T01:12:27.482Z,69.23
2022-10-05T01:15:08.968Z,69.85
2022-10-05T01:17:50.020Z,70.23
2022-10-05T01:20:29.782Z,70.41
2022-10-05T01:23:47.155Z,71.00
2022-10-05T01:26:47.343Z,73.21
2022-10-05T01:29:24.874Z,72.94
2022-10-05T01:32:19.310Z,72.94
2022-10-05T01:35:27.671Z,72.10
2022-10-05T01:38:16.101Z,71.98
2022-10-05T01:41:16.479Z,71.89
2022-10-05T01:44:15.451Z,72.11
2022-10-05T01:47:05.578Z,72.13
2022-10-05T01:50:02.480Z,72.11
2022-10-05T01:52:49.363Z,71.82
2022-10-05T01:55:32.393Z,71.29
2022-10-05T01:58:19.869Z,72.52
2022-10-05T02:00:58.374Z,72.18
2022-10-05T02:03:30.686Z,72.37
2022-10-05T02:06:01.646Z,73.17
2022-10-05T02:08:39.635Z,73.26
2022-10-05T02:11:08.674Z,73.43
2022-10-05T02:13:40.425Z,73.61
2022-10-05T02:16:16.949Z,72.99
2022-10-05T02:18:59.143Z,73.39
2022-10-05T02:21:26.698Z,73.07
2022-10-05T02:23:57.269Z,73.05
2022-10-05T02:26:25.804Z,72.63
2022-10-05T02:28:56.417Z,72.67
2022-10-05T02:31:28.592Z,73.11
2022-10-05T02:34:22.735Z,72.67
2022-10-05T02:37:01.101Z,72.19
2022-10-05T02:39:53.777Z,72.51
2022-10-05T02:42:30.694Z,73.45
2022-10-05T02:45:02.721Z,73.15
2022-10-05T02:47:41.602Z,73.03
2022-10-05T02:50:33.573Z,72.47
2022-10-05T02:53:20.438Z,72.24
2022-10-05T02:55:46.668Z,71.65
2022-10-05T02:58:12.919Z,71.44
2022-10-05T03:00:47.853Z,71.40
2022-10-05T03:03:28.096Z,72.33
2022-10-05T03:06:00.193Z,71.89
2022-10-05T03:08:29.202Z,71.47
2022-10-05T03:11:18.292Z,72.80
2022-10-05T03:14:10.987Z,72.62
2022-10-05T03:16:56.171Z,73.01
2022-10-05T03:19:25.410Z,72.44
2022-10-05T03:22:29.279Z,72.85
2022-10-05T03:25:25.264Z,72.83
2022-10-05T03:28:10.982Z,72.39
2022-10-05T03:30:50.974Z,71.84
2022-10-05T03:33:55.973Z,72.38
2022-10-05T03:36:32.900Z,72.15
2022-10-05T03:39:11.070Z,72.26
2022-10-05T03:41:47.394Z,72.45
2022-10-05T03:44:39.492Z,72.43
2022-10-05T03:47:18.142Z,72.49
2022-10-05T03:49:53.856Z,72.89
2022-10-05T03:52:23.215Z,72.30
2022-10-05T03:54:59.902Z,72.12
2022-10-05T03:57:29.479Z,72.36
2022-10-05T03:59:55.910Z,72.69
2022-10-05T04:02:30.909Z,72.98
2022-10-05T04:05:31.732Z,72.88
2022-10-05T04:08:10.218Z,73.34
2022-10-05T04:10:50.627Z,73.59
2022-10-05T04:13:38.312Z,74.46
2022-10-05T04:16:19.338Z,74.42
2022-10-05T04:19:14.180Z,74.61
2022-10-05T04:22:11.572Z,74.85
2022-10-05T04:24:44.843Z,73.66
2022-10-05T04:27:13.446Z,73.68
2022-10-05T04:29:50.983Z,74.08
2022-10-05T04:32:49.811Z,74.17
2022-10-05T04:35:25.288Z,73.71
2022-10-05T04:38:16.806Z,73.00
2022-10-05T04:40:50.888Z,73.43
2022-10-05T04:43:19.997Z,72.85
2022-10-05T04:46:30.694Z,73.28
2022-10-05T04:49:20.962Z,73.83
2022-10-05T04:52:05.633Z,73.59
2022-10-05T04:54:56.857Z,73.46
2022-10-05T04:57:41.878Z,73.49
2022-10-05T05:00:20.324Z,74.25
2022-10-05T05:03:14.577Z,74.24
2022-10-05T05:06:16.028Z,73.70
2022-10-05T05:09:15.095Z,73.52
2022-10-05T05:11:47.476Z,72.83
2022-10-05T05:14:42.492Z,73.50
2022-10-05T05:17:25.546Z,73.09
2022-10-05T05:20:20.916Z,72.94
2022-10-05T05:22:58.838Z,73.02
2022-10-05T05:25:36.915Z,73.12
2022-10-05T05:28:28.559Z,73.37
2022-10-05T05:31:18.292Z,72.71
2022-10-05T05:33:55.142Z,73.01
2022-10-05T05:36:42.418Z,73.64
2022-10-05T05:39:14.705Z,74.15
2022-10-05T05:41:47.099Z,73.78
2022-10-05T05:44:35.283Z,73.37
2022-10-05T05:47:18.859Z,73.86
2022-10-05T05:50:06.721Z,73.49
2022-10-05T05:53:01.180Z,72.79
2022-10-05T05:55:52.484Z,73.29
2022-10-05T05:58:43.732Z,72.96
2022-10-05T06:01:32.199Z,73.19
2022-10-05T06:04:01.850Z,73.13
2022-10-05T06:06:37.907Z,73.61
2022-10-05T06:10:06.275Z,72.99
2022-10-05T06:12:41.534Z,73.49
2022-10-05T06:16:21.034Z,73.41
2022-10-05T06:19:12.330Z,72.74
2022-10-05T06:21:47.953Z,73.17
2022-10-05T06:24:20.771Z,73.33
2022-10-05T06:27:18.092Z,72.84
2022-10-05T06:30:15.125Z,72.84
2022-10-05T06:32:52.544Z,72.51
2022-10-05T06:35:45.654Z,72.20
2022-10-05T06:38:43.500Z,72.47
2022-10-05T06:41:40.446Z,72.64
2022-10-05T06:44:16.421Z,72.62
2022-10-05T06:47:00.929Z,72.05
2022-10-05T06:49:36.948Z,72.28
2022-10-05T06:52:29.929Z,72.01
2022-10-05T06:54:59.228Z,72.09
2022-10-05T06:57:52.093Z,73.40
2022-10-05T07:00:24.911Z,73.86
2022-10-05T07:02:57.809Z,74.49
2022-10-05T07:05:41.342Z,73.95
2022-10-05T07:08:13.375Z,73.20
2022-10-05T07:10:51.111Z,72.77
2022-10-05T07:13:26.956Z,72.40
2022-10-05T07:16:11.991Z,72.61
2022-10-05T07:18:59.141Z,72.25
2022-10-05T07:21:56.410Z,72.53
2022-10-05T07:24:31.592Z,72.68
2022-10-05T07:27:06.501Z,72.69
2022-10-05T07:29:43.240Z,72.95
2022-10-05T07:32:32.889Z,72.85
2022-10-05T07:35:34.874Z,72.96
2022-10-05T07:38:09.587Z,73.19
2022-10-05T07:40:44.805Z,73.19
2022-10-05T07:43:51.434Z,73.43
2022-10-05T07:46:28.246Z,73.21
2022-10-05T07:49:28.752Z,73.20
2022-10-05T07:52:18.920Z,73.78
2022-10-05T07:55:10.277Z,73.89
2022-10-05T07:57:42.971Z,73.98
2022-10-05T08:00:12.632Z,74.08
2022-10-05T08:02:48.949Z,73.25
2022-10-05T08:05:25.592Z,73.08
2022-10-05T08:08:00.422Z,72.86
2022-10-05T08:11:04.599Z,72.28
2022-10-05T08:13:48.824Z,72.20
2022-10-05T08:16:16.586Z,71.85
2022-10-05T08:18:57.380Z,71.78
2022-10-05T08:21:47.964Z,72.36
2022-10-05T08:24:38.636Z,73.06
2022-10-05T08:27:12.481Z,72.31
2022-10-05T08:29:50.002Z,72.34
2022-10-05T08:32:24.380Z,72.25
2022-10-05T08:35:01.789Z,71.64
2022-10-05T08:37:39.926Z,71.87
2022-10-05T08:40:18.595Z,71.27
2022-10-05T08:43:05.678Z,70.46
2022-10-05T08:46:01.108Z,71.40
2022-10-05T08:48:45.778Z,71.80
2022-10-05T08:51:32.206Z,72.03
2022-10-05T08:54:23.533Z,71.56
2022-10-05T08:57:10.283Z,71.98
2022-10-05T08:59:49.831Z,71.48
2022-10-05T09:02:30.918Z,71.90
2022-10-05T09:05:10.072Z,71.21
2022-10-05T09:08:03.824Z,70.17
2022-10-05T09:10:33.068Z,70.57
2022-10-05T09:13:08.466Z,69.87
2022-10-05T09:15:59.263Z,69.73
2022-10-05T09:18:40.353Z,68.69
2022-10-05T09:21:27.506Z,67.96
2022-10-05T09:24:12.347Z,67.91
2022-10-05T09:27:03.730Z,67.33
2022-10-05T09:29:52.042Z,67.06
2022-10-05T09:33:02.849Z,67.18
2022-10-05T09:35:29.682Z,67.22
2022-10-05T09:38:31.538Z,65.98
2022-10-05T09:41:25.666Z,65.83
2022-10-05T09:44:19.305Z,65.91
2022-10-05T09:47:11.726Z,65.34
2022-10-05T09:50:03.585Z,65.36
2022-10-05T09:52:53.027Z,65.25
2022-10-05T09:56:01.124Z,65.49
2022-10-05T09:58:45.758Z,66.27
2022-10-05T10:01:36.683Z,66.64
2022-10-05T10:04:26.071Z,66.13
2022-10-05T10:07:21.023Z,66.14
2022-10-05T10:10:17.906Z,65.47
2022-10-05T10:13:13.046Z,65.29
2022-10-05T10:16:09.915Z,66.59
2022-10-05T10:19:00.469Z,66.28
2022-10-05T10:21:39.728Z,65.71
2022-10-05T10:24:43.202Z,65.49
2022-10-05T10:27:34.359Z,64.57
2022-10-05T10:30:25.097Z,63.50
2022-10-05T10:33:21.075Z,63.19
2022-10-05T10:36:21.524Z,61.66
2022-10-05T10:38:58.266Z,61.38
2022-10-05T10:41:57.768Z,60.64
2022-10-05T10:44:47.994Z,60.88
2022-10-05T10:47:35.327Z,60.72
2022-10-05T10:50:11.129Z,59.62
2022-10-05T10:53:05.655Z,59.67
2022-10-05T10:55:50.689Z,60.16
2022-10-05T10:58:55.931Z,59.90
2022-10-05T11:01:25.249Z,59.62
2022-10-05T11:04:22.364Z,58.84
2022-10-05T11:07:21.309Z,58.32
2022-10-05T11:10:03.046Z,58.57
2022-10-05T11:12:57.863Z,57.75
2022-10-05T11:15:58.453Z,58.40
2022-10-05T11:18:51.321Z,58.11
2022-10-05T11:21:45.445Z,57.24
2022-10-05T11:24:23.885Z,56.81
2022-10-05T11:27:18.110Z,56.32
2022-10-05T11:30:22.913Z,56.84
2022-10-05T11:33:11.109Z,56.84
2022-10-05T11:35:55.583Z,55.58
2022-10-05T11:38:51.379Z,55.09
2022-10-05T11:41:41.133Z,54.89
2022-10-05T11:44:53.925Z,53.46
2022-10-05T11:47:28.980Z,54.23
2022-10-05T11:50:32.311Z,53.24
2022-10-05T11:53:06.069Z,53.02
2022-10-05T11:55:49.652Z,53.25
2022-10-05T11:58:23.579Z,52.20
2022-10-05T12:01:00.078Z,53.01
2022-10-05T12:03:43.750Z,51.57
2022-10-05T12:06:24.498Z,50.98
2022-10-05T12:09:23.032Z,51.55
2022-10-05T12:11:49.290Z,51.67
2022-10-05T12:14:21.990Z,51.33
2022-10-05T12:16:58.746Z,51.21
2022-10-05T12:19:57.605Z,49.58
2022-10-05T12:22:37.219Z,50.30
2022-10-05T12:25:28.969Z,50.33
2022-10-05T12:28:00.587Z,49.32
2022-10-05T12:30:57.884Z,48.72
2022-10-05T12:33:34.212Z,47.19
2022-10-05T12:36:19.280Z,47.27
2022-10-05T12:39:03.320Z,47.61
2022-10-05T12:41:45.296Z,47.22
2022-10-05T12:44:36.156Z,47.75
2022-10-05T12:47:16.691Z,46.82
2022-10-05T12:49:48.769Z,46.67
2022-10-05T12:55:14.002Z,45.66
2022-10-05T12:58:09.036Z,44.78
2022-10-05T13:00:45.714Z,44.00
2022-10-05T13:03:28.771Z,43.97
2022-10-05T13:06:04.125Z,44.51
2022-10-05T13:08:41.988Z,44.37
2022-10-05T13:11:23.681Z,44.43
2022-10-05T13:14:16.390Z,43.68
2022-10-05T13:16:59.595Z,44.46
2022-10-05T13:19:50.823Z,43.96
2022-10-05T13:22:30.874Z,42.76
2022-10-05T13:25:17.323Z,42.64
2022-10-05T13:28:12.948Z,44.80
2022-10-05T13:30:45.370Z,44.89
2022-10-05T13:33:21.377Z,44.83
2022-10-05T13:36:13.614Z,43.72
2022-10-05T13:38:55.151Z,43.39
2022-10-05T13:41:24.423Z,42.71
2022-10-05T13:44:07.469Z,43.16
2022-10-05T13:46:58.569Z,42.55
2022-10-05T13:49:37.076Z,43.81
2022-10-05T13:52:09.665Z,43.20
2022-10-05T13:55:01.566Z,43.21
2022-10-05T13:57:34.732Z,42.61
2022-10-05T14:00:13.284Z,40.39
2022-10-05T14:02:43.379Z,40.92
2022-10-05T14:05:27.382Z,41.61
2022-10-05T14:08:02.621Z,42.12
2022-10-05T14:10:43.933Z,42.31
2022-10-05T14:13:27.435Z,42.81
2022-10-05T14:16:12.962Z,43.35
2022-10-05T14:18:52.421Z,42.49
2022-10-05T14:21:24.190Z,41.88
2022-10-05T14:23:51.895Z,41.35
2022-10-05T14:26:34.913Z,41.82
2022-10-05T14:29:14.830Z,41.91
2022-10-05T14:31:57.707Z,40.26
2022-10-05T14:34:33.230Z,41.27
2022-10-05T14:37:24.968Z,41.20
2022-10-05T14:39:57.261Z,42.02
2022-10-05T14:42:26.947Z,42.37
2022-10-05T14:45:14.832Z,41.15
2022-10-05T14:48:02.052Z,41.44
2022-10-05T14:50:31.169Z,40.71
2022-10-05T14:53:16.705Z,40.92
2022-10-05T14:55:45.672Z,40.54
2022-10-05T14:58:24.133Z,40.88
2022-10-05T15:01:05.158Z,40.88
2022-10-05T15:03:50.122Z,40.36
2022-10-05T15:06:27.955Z,40.85
2022-10-05T15:09:17.635Z,41.43
2022-10-05T15:11:54.918Z,40.61
2022-10-05T15:14:29.469Z,40.92
2022-10-05T15:17:03.113Z,41.80
2022-10-05T15:19:52.640Z,40.55
2022-10-05T15:22:29.271Z,40.99
2022-10-05T15:25:26.900Z,40.60
2022-10-05T15:28:04.145Z,41.34
2022-10-05T15:30:36.130Z,40.78
2022-10-05T15:33:09.104Z,40.95
2022-10-05T15:36:01.357Z,40.64
2022-10-05T15:38:37.138Z,40.33
2022-10-05T15:41:20.026Z,40.50
2022-10-05T15:44:09.401Z,41.74
2022-10-05T15:46:44.049Z,42.39
2022-10-05T15:49:27.809Z,42.51
2022-10-05T15:52:18.077Z,42.09
2022-10-05T15:55:02.694Z,43.33
2022-10-05T15:57:48.489Z,43.00
2022-10-05T16:00:18.844Z,42.82
2022-10-05T16:02:51.894Z,43.26
2022-10-05T16:06:08.500Z,43.39
2022-10-05T16:09:01.761Z,43.44
2022-10-05T16:11:32.652Z,43.17
2022-10-05T16:14:14.491Z,42.44
2022-10-05T16:16:49.755Z,43.35
2022-10-05T16:19:35.063Z,43.12
2022-10-05T16:22:28.258Z,43.11
2022-10-05T16:25:06.448Z,43.46
2022-10-05T16:27:47.561Z,44.36
2022-10-05T16:30:20.846Z,44.01
2022-10-05T16:33:03.498Z,45.35
2022-10-05T16:36:06.348Z,45.57
2022-10-05T16:38:42.885Z,45.42
2022-10-05T16:41:17.577Z,44.71
2022-10-05T16:44:10.081Z,45.41
2022-10-05T16:47:01.236Z,45.67
2022-10-05T16:49:55.101Z,45.22
2022-10-05T16:52:23.832Z,45.42
2022-10-05T16:55:04.181Z,45.00
2022-10-05T16:57:41.268Z,45.31
2022-10-05T17:00:28.922Z,46.35
2022-10-05T17:02:55.398Z,46.50
2022-10-05T17:05:31.795Z,46.57
2022-10-05T17:08:08.690Z,46.72
2022-10-05T17:11:17.073Z,45.64
2022-10-05T17:14:21.787Z,46.25
2022-10-05T17:16:57.343Z,46.10
2022-10-05T17:19:32.057Z,46.70
2022-10-05T17:22:11.572Z,46.74
2022-10-05T17:24:54.976Z,47.11
2022-10-05T17:27:35.112Z,47.58
2022-10-05T17:30:22.027Z,49.38
2022-10-05T17:33:18.450Z,49.56
2022-10-05T17:36:01.695Z,49.58
2022-10-05T17:38:30.814Z,49.47
2022-10-05T17:41:00.170Z,49.52
2022-10-05T17:43:28.538Z,49.50
2022-10-05T17:46:09.123Z,49.11
2022-10-05T17:48:54.195Z,49.69
2022-10-05T17:51:48.257Z,49.62
2022-10-05T17:55:14.999Z,50.02
2022-10-05T17:57:41.874Z,50.73
2022-10-05T18:00:43.367Z,50.23
2022-10-05T18:03:31.769Z,51.03
2022-10-05T18:06:26.289Z,50.85
2022-10-05T18:09:22.614Z,50.57
2022-10-05T18:12:16.915Z,50.90
2022-10-05T18:14:57.995Z,50.20
2022-10-05T18:17:50.585Z,50.17
2022-10-05T18:20:32.500Z,50.16
2022-10-05T18:23:09.335Z,50.84
2022-10-05T18:25:55.891Z,50.60
2022-10-05T18:29:14.035Z,49.63
2022-10-05T18:32:01.046Z,49.43
2022-10-05T18:34:33.352Z,50.69
2022-10-05T18:37:09.318Z,51.87
2022-10-05T18:40:08.586Z,51.87
2022-10-05T18:43:07.063Z,53.34
2022-10-05T18:46:17.861Z,54.04
2022-10-05T18:49:02.991Z,53.78
2022-10-05T18:51:52.621Z,54.15
2022-10-05T18:54:35.497Z,53.54
2022-10-05T18:57:31.431Z,53.39
2022-10-05T19:00:04.298Z,53.07
2022-10-05T19:02:36.322Z,52.99
2022-10-05T19:05:45.852Z,53.52
2022-10-05T19:08:10.604Z,53.17
2022-10-05T19:10:42.555Z,53.53
2022-10-05T19:13:30.983Z,53.13
2022-10-05T19:16:17.931Z,53.10
2022-10-05T19:19:07.258Z,53.28
2022-10-05T19:21:59.017Z,53.11
2022-10-05T19:24:49.439Z,52.86
2022-10-05T19:27:45.184Z,53.96
2022-10-05T19:30:20.291Z,55.07
2022-10-05T19:32:55.091Z,55.08
2022-10-05T19:35:28.455Z,55.15
2022-10-05T19:38:20.553Z,55.50
2022-10-05T19:40:56.182Z,55.63
2022-10-05T19:44:02.576Z,55.50
2022-10-05T19:47:01.593Z,55.81
2022-10-05T19:49:58.928Z,56.12
2022-10-05T19:52:46.357Z,56.27
2022-10-05T19:55:26.107Z,56.45
2022-10-05T19:58:00.374Z,56.76
2022-10-05T20:00:32.162Z,56.50
2022-10-05T20:03:19.682Z,57.55
2022-10-05T20:05:46.245Z,56.95
2022-10-05T20:08:17.793Z,57.70
2022-10-05T20:10:45.706Z,58.69
2022-10-05T20:13:20.728Z,58.16
2022-10-05T20:16:48.253Z,57.81
2022-10-05T20:19:48.983Z,57.10
2022-10-05T20:22:34.889Z,57.31
2022-10-05T20:25:28.986Z,57.34
2022-10-05T20:27:56.477Z,56.47
2022-10-05T20:30:25.742Z,56.35
2022-10-05T20:32:57.437Z,57.07
2022-10-05T20:35:27.591Z,57.44
2022-10-05T20:37:54.484Z,57.24
2022-10-05T20:40:21.169Z,57.70
2022-10-05T20:42:47.857Z,56.90
2022-10-05T20:45:14.548Z,56.55
2022-10-05T20:47:42.105Z,56.24
2022-10-05T20:50:10.293Z,56.26
2022-10-05T20:52:37.397Z,56.46
2022-10-05T20:55:09.973Z,56.32
2022-10-05T20:57:41.440Z,56.23
2022-10-05T21:00:09.760Z,56.10
2022-10-05T21:02:37.077Z,56.01
2022-10-05T21:05:04.505Z,56.05
2022-10-05T21:07:31.079Z,56.14
2022-10-05T21:09:57.404Z,56.08
2022-10-05T21:12:23.742Z,56.07
2022-10-05T21:14:52.494Z,57.05
2022-10-05T21:17:20.075Z,57.09
2022-10-05T21:19:47.068Z,57.52
2022-10-05T21:22:13.423Z,58.12
2022-10-05T21:24:40.748Z,58.67
2022-10-05T21:27:07.982Z,58.15
2022-10-05T21:29:35.239Z,58.79
2022-10-05T21:32:01.733Z,59.50
2022-10-05T21:34:28.616Z,59.54
2022-10-05T21:36:54.970Z,59.89
2022-10-05T21:39:21.280Z,60.61
2022-10-05T21:41:49.603Z,60.99
2022-10-05T21:44:16.336Z,60.75
2022-10-05T21:46:42.686Z,60.31
2022-10-05T21:49:09.881Z,59.73
2022-10-05T21:51:38.352Z,59.56
2022-10-05T21:54:12.440Z,58.73
2022-10-05T21:56:43.627Z,58.60
2022-10-05T21:59:13.100Z,58.24
2022-10-05T22:01:39.601Z,58.24
2022-10-05T22:04:06.887Z,57.87
2022-10-05T22:06:35.026Z,57.65
2022-10-05T22:09:02.003Z,57.55
2022-10-05T22:11:28.934Z,57.19
2022-10-05T22:14:01.876Z,56.99
2022-10-05T22:16:31.624Z,56.93
2022-10-05T22:18:58.785Z,57.52
2022-10-05T22:21:25.153Z,56.83
2022-10-05T22:23:51.485Z,55.96
2022-10-05T22:26:21.107Z,56.38
2022-10-05T22:28:48.333Z,56.14
2022-10-05T22:31:15.469Z,56.77
2022-10-05T22:33:41.816Z,56.91
2022-10-05T22:36:09.500Z,57.02
2022-10-05T22:38:35.922Z,56.36
2022-10-05T22:41:02.293Z,56.68
2022-10-05T22:43:28.903Z,56.02
2022-10-05T22:45:55.887Z,56.05
2022-10-05T22:48:22.353Z,56.17
2022-10-05T22:50:49.139Z,56.10
2022-10-05T22:53:15.545Z,55.85
2022-10-05T22:55:41.830Z,55.75
2022-10-05T22:58:08.151Z,55.89
2022-10-05T23:00:56.545Z,56.22
2022-10-05T23:03:20.770Z,56.07
2022-10-05T23:05:47.085Z,55.72
2022-10-05T23:08:13.412Z,56.50
2022-10-05T23:10:39.700Z,55.82
2022-10-05T23:13:06.209Z,57.04
2022-10-05T23:15:33.678Z,56.24
2022-10-05T23:18:00.165Z,57.85
2022-10-05T23:20:26.793Z,57.74
2022-10-05T23:22:53.081Z,58.27
2022-10-05T23:25:19.609Z,58.63
2022-10-05T23:27:45.910Z,59.36
2022-10-05T23:30:12.742Z,60.70
2022-10-05T23:32:40.638Z,61.90
2022-10-05T23:35:08.846Z,62.63
2022-10-05T23:37:43.591Z,63.51
2022-10-05T23:40:12.961Z,64.00
2022-10-05T23:42:40.692Z,65.01
2022-10-05T23:45:11.288Z,64.65
2022-10-05T23:47:39.073Z,64.67
2022-10-05T23:50:06.932Z,65.55
2022-10-05T23:52:34.283Z,66.49
2022-10-05T23:55:01.028Z,66.14
2022-10-05T23:57:27.396Z,66.07
2022-10-05T23:59:56.054Z,66.18
